CST,Max TemperatureF,Mean TemperatureF,Min TemperatureF,Max Dew PointF,MeanDew PointF,Min DewpointF,Max Humidity, Mean Humidity, Min Humidity, Max Sea Level PressureIn, Mean Sea Level PressureIn, Min Sea Level PressureIn, Max VisibilityMiles, Mean VisibilityMiles, Min VisibilityMiles, Max Wind SpeedMPH, Mean Wind SpeedMPH, Max Gust SpeedMPH,PrecipitationIn, CloudCover, Events, WindDirDegrees
2013-12-1,60,50,39,46,43,39,100,84,55,30.14,30.05,29.88,10,9,2,6,3,,0.00,3,,201
2013-12-2,59,50,42,48,44,43,100,95,59,29.88,29.80,29.68,10,4,0,8,3,,0.00,5,Fog,213
2013-12-3,59,50,41,54,48,41,100,96,67,29.70,29.66,29.61,10,5,0,16,8,21,0.00,6,Fog,163
2013-12-4,64,50,35,54,47,32,100,89,59,29.91,29.69,29.57,10,10,9,13,8,26,0.00,4,,209
2013-12-5,33,25,17,30,19,16,100,88,74,30.32,30.18,29.95,10,6,1,13,8,20,0.23,7,Rain-Snow,332
2013-12-6,19,15,10,16,14,2,93,84,65,30.63,30.35,30.24,10,7,1,14,8,21,0.03,7,Snow,352
2013-12-7,19,12,5,13,5,0,87,69,52,30.72,30.57,30.37,10,10,3,13,8,,0.00,3,Snow,45
2013-12-8,26,20,15,27,20,12,100,94,79,30.40,30.14,29.99,10,8,2,9,6,,0.00,8,Rain-Snow,122
2013-12-9,27,23,19,27,19,13,100,87,67,30.36,30.25,30.09,10,8,2,10,6,17,0.09,8,Snow,309
2013-12-10,32,22,11,19,14,9,100,75,45,30.39,30.33,30.27,10,10,9,10,6,20,0.00,2,,240
2013-12-11,32,24,11,22,14,5,98,70,49,30.66,30.53,30.33,10,10,10,14,6,20,0.00,0,,321
2013-12-12,42,25,8,18,11,5,87,60,29,30.64,30.49,30.30,10,10,10,10,4,,0.00,0,,198
2013-12-13,33,26,19,33,29,16,100,94,66,30.26,30.01,29.87,10,7,3,15,7,,0.51,7,Rain,151
2013-12-14,32,29,25,32,31,25,100,100,96,30.22,29.93,29.81,10,7,1,15,5,24,0.17,8,Rain-Snow,295
2013-12-15,44,33,22,32,28,22,100,83,61,30.24,30.16,30.05,10,10,8,8,5,17,0.00,4,,241
2013-12-16,57,46,34,34,32,31,91,62,40,30.16,30.06,30.01,10,10,10,10,7,,0.00,0,,255
2013-12-17,50,38,26,31,27,24,99,73,41,30.33,30.24,30.13,10,9,5,10,4,23,0.00,0,,298
2013-12-18,55,40,26,39,30,22,89,65,42,30.29,30.12,29.94,10,10,10,16,8,28,0.00,0,,174
2013-12-19,55,52,48,53,47,40,89,79,68,29.93,29.84,29.76,10,10,10,15,11,25,0.00,5,,178
2013-12-20,65,48,32,59,40,32,100,96,77,29.89,29.83,29.74,10,5,1,14,8,23,0.12,8,Rain,298
2013-12-21,32,32,31,33,32,32,100,100,100,29.83,29.72,29.53,10,7,2,7,3,,1.02,8,Rain,359
2013-12-22,34,29,23,34,29,21,100,96,80,30.35,29.92,29.63,10,10,3,14,6,23,0.00,8,Snow,281
2013-12-23,23,17,11,20,14,8,95,86,71,30.63,30.52,30.36,10,10,9,12,7,17,0.00,7,Snow,316
2013-12-24,31,18,6,18,9,5,92,78,51,30.63,30.51,30.34,10,10,10,14,6,22,0.00,4,Snow,88
2013-12-25,36,30,25,32,28,20,100,89,78,30.38,30.33,30.27,10,9,4,13,7,,0.00,6,,247
2013-12-26,49,37,25,32,26,19,100,79,30,30.40,30.35,30.29,10,7,0,10,4,17,0.00,0,Fog,211
2013-12-27,58,44,30,31,28,25,83,60,31,30.41,30.34,30.29,10,10,10,8,6,,0.00,0,,215
2013-12-28,55,46,36,32,28,22,70,54,27,30.28,30.11,29.94,10,10,10,10,7,17,0.00,4,,197
2013-12-29,41,28,15,33,23,9,100,82,68,30.30,30.12,29.91,10,10,10,15,9,24,0.00,6,,317
2013-12-30,31,19,7,16,7,3,88,60,35,30.35,30.31,30.25,10,10,10,7,4,,0.00,3,,273
2013-12-31,53,36,20,24,19,16,83,53,27,30.41,30.29,30.19,10,10,10,12,7,21,0.00,0,,196